sensor_id;sensor_type;location;lat;lon;timestamp;P1;durP1;ratioP1;P2;durP2;ratioP2
63320;SDS011;49449;48.800;9.534;2023-05-27T00:00:02;9.05;;;3.63;;
63320;SDS011;49449;48.800;9.534;2023-05-27T00:02:31;7.50;;;3.33;;
63320;SDS011;49449;48.800;9.534;2023-05-27T00:04:59;7.15;;;3.30;;
63320;SDS011;49449;48.800;9.534;2023-05-27T00:07:27;9.02;;;4.00;;
63320;SDS011;49449;48.800;9.534;2023-05-27T00:09:55;5.35;;;3.20;;
63320;SDS011;49449;48.800;9.534;2023-05-27T00:12:22;8.55;;;3.40;;
63320;SDS011;49449;48.800;9.534;2023-05-27T00:14:50;8.85;;;3.55;;
63320;SDS011;49449;48.800;9.534;2023-05-27T00:17:19;8.43;;;4.10;;
63320;SDS011;49449;48.800;9.534;2023-05-27T00:19:50;6.65;;;3.38;;
63320;SDS011;49449;48.800;9.534;2023-05-27T00:22:20;8.57;;;4.18;;
63320;SDS011;49449;48.800;9.534;2023-05-27T00:24:49;7.40;;;3.45;;
63320;SDS011;49449;48.800;9.534;2023-05-27T00:27:17;8.05;;;4.07;;
63320;SDS011;49449;48.800;9.534;2023-05-27T00:29:45;6.30;;;3.38;;
63320;SDS011;49449;48.800;9.534;2023-05-27T00:32:12;7.55;;;3.35;;
63320;SDS011;49449;48.800;9.534;2023-05-27T00:34:41;8.40;;;3.53;;
63320;SDS011;49449;48.800;9.534;2023-05-27T00:37:09;8.45;;;3.40;;
63320;SDS011;49449;48.800;9.534;2023-05-27T00:39:37;7.72;;;3.83;;
63320;SDS011;49449;48.800;9.534;2023-05-27T00:42:05;8.25;;;3.50;;
63320;SDS011;49449;48.800;9.534;2023-05-27T00:44:34;8.25;;;3.13;;
63320;SDS011;49449;48.800;9.534;2023-05-27T00:47:02;6.57;;;3.38;;
63320;SDS011;49449;48.800;9.534;2023-05-27T00:49:29;12.27;;;4.38;;
63320;SDS011;49449;48.800;9.534;2023-05-27T00:51:59;7.05;;;3.92;;
63320;SDS011;49449;48.800;9.534;2023-05-27T00:54:27;9.27;;;3.70;;
63320;SDS011;49449;48.800;9.534;2023-05-27T00:56:55;8.45;;;3.97;;
63320;SDS011;49449;48.800;9.534;2023-05-27T00:59:23;7.57;;;3.78;;
63320;SDS011;49449;48.800;9.534;2023-05-27T01:01:51;6.82;;;3.47;;
63320;SDS011;49449;48.800;9.534;2023-05-27T01:04:19;8.38;;;3.20;;
63320;SDS011;49449;48.800;9.534;2023-05-27T01:06:49;9.10;;;4.00;;
63320;SDS011;49449;48.800;9.534;2023-05-27T01:09:26;10.23;;;3.78;;
63320;SDS011;49449;48.800;9.534;2023-05-27T01:12:05;7.13;;;3.13;;
63320;SDS011;49449;48.800;9.534;2023-05-27T01:14:40;5.93;;;3.83;;
63320;SDS011;49449;48.800;9.534;2023-05-27T01:19:40;9.02;;;3.88;;
63320;SDS011;49449;48.800;9.534;2023-05-27T01:22:11;9.43;;;4.28;;
63320;SDS011;49449;48.800;9.534;2023-05-27T01:24:41;6.88;;;3.60;;
63320;SDS011;49449;48.800;9.534;2023-05-27T01:27:09;6.38;;;3.47;;
63320;SDS011;49449;48.800;9.534;2023-05-27T01:29:39;7.82;;;4.13;;
63320;SDS011;49449;48.800;9.534;2023-05-27T01:32:10;8.65;;;4.28;;
63320;SDS011;49449;48.800;9.534;2023-05-27T01:34:45;8.18;;;3.50;;
63320;SDS011;49449;48.800;9.534;2023-05-27T01:37:19;12.18;;;3.58;;
63320;SDS011;49449;48.800;9.534;2023-05-27T01:39:52;8.50;;;3.85;;
63320;SDS011;49449;48.800;9.534;2023-05-27T01:42:20;6.97;;;3.20;;
63320;SDS011;49449;48.800;9.534;2023-05-27T01:44:51;10.57;;;3.60;;
63320;SDS011;49449;48.800;9.534;2023-05-27T01:47:19;9.95;;;3.85;;
63320;SDS011;49449;48.800;9.534;2023-05-27T01:49:47;8.13;;;3.30;;
63320;SDS011;49449;48.800;9.534;2023-05-27T01:52:14;8.13;;;3.47;;
63320;SDS011;49449;48.800;9.534;2023-05-27T01:54:42;9.05;;;3.70;;
63320;SDS011;49449;48.800;9.534;2023-05-27T01:57:11;9.98;;;3.45;;
63320;SDS011;49449;48.800;9.534;2023-05-27T01:59:39;7.25;;;3.20;;
63320;SDS011;49449;48.800;9.534;2023-05-27T02:02:07;8.20;;;3.85;;
63320;SDS011;49449;48.800;9.534;2023-05-27T02:04:35;9.98;;;3.78;;
63320;SDS011;49449;48.800;9.534;2023-05-27T02:07:03;8.43;;;3.95;;
63320;SDS011;49449;48.800;9.534;2023-05-27T02:09:31;6.68;;;3.20;;
63320;SDS011;49449;48.800;9.534;2023-05-27T02:11:59;7.90;;;3.63;;
63320;SDS011;49449;48.800;9.534;2023-05-27T02:14:28;8.07;;;3.67;;
63320;SDS011;49449;48.800;9.534;2023-05-27T02:16:57;8.30;;;4.05;;
63320;SDS011;49449;48.800;9.534;2023-05-27T02:19:25;7.72;;;3.90;;
63320;SDS011;49449;48.800;9.534;2023-05-27T02:21:53;8.48;;;3.75;;
63320;SDS011;49449;48.800;9.534;2023-05-27T02:24:20;6.53;;;3.40;;
63320;SDS011;49449;48.800;9.534;2023-05-27T02:26:48;7.43;;;3.22;;
63320;SDS011;49449;48.800;9.534;2023-05-27T02:29:16;9.18;;;3.63;;
63320;SDS011;49449;48.800;9.534;2023-05-27T02:31:45;8.85;;;3.80;;
63320;SDS011;49449;48.800;9.534;2023-05-27T02:34:13;9.00;;;3.65;;
63320;SDS011;49449;48.800;9.534;2023-05-27T02:36:41;7.93;;;3.85;;
63320;SDS011;49449;48.800;9.534;2023-05-27T02:39:09;9.40;;;3.33;;
63320;SDS011;49449;48.800;9.534;2023-05-27T02:41:37;9.32;;;3.58;;
63320;SDS011;49449;48.800;9.534;2023-05-27T02:44:05;8.38;;;4.20;;
63320;SDS011;49449;48.800;9.534;2023-05-27T02:46:33;8.10;;;3.42;;
63320;SDS011;49449;48.800;9.534;2023-05-27T02:49:02;8.68;;;3.70;;
63320;SDS011;49449;48.800;9.534;2023-05-27T02:51:30;6.95;;;3.47;;
63320;SDS011;49449;48.800;9.534;2023-05-27T02:53:57;5.85;;;2.85;;
63320;SDS011;49449;48.800;9.534;2023-05-27T02:56:26;9.35;;;4.70;;
63320;SDS011;49449;48.800;9.534;2023-05-27T02:58:54;9.00;;;3.60;;
63320;SDS011;49449;48.800;9.534;2023-05-27T03:01:22;7.57;;;3.38;;
63320;SDS011;49449;48.800;9.534;2023-05-27T03:03:51;9.85;;;4.28;;
63320;SDS011;49449;48.800;9.534;2023-05-27T03:06:20;8.20;;;3.38;;
63320;SDS011;49449;48.800;9.534;2023-05-27T03:08:50;6.70;;;3.50;;
63320;SDS011;49449;48.800;9.534;2023-05-27T03:11:18;7.65;;;3.33;;
63320;SDS011;49449;48.800;9.534;2023-05-27T03:13:47;6.07;;;3.55;;
63320;SDS011;49449;48.800;9.534;2023-05-27T03:16:15;8.25;;;3.58;;
63320;SDS011;49449;48.800;9.534;2023-05-27T03:18:46;7.40;;;3.17;;
63320;SDS011;49449;48.800;9.534;2023-05-27T03:21:13;10.13;;;4.05;;
63320;SDS011;49449;48.800;9.534;2023-05-27T03:23:43;6.40;;;3.53;;
63320;SDS011;49449;48.800;9.534;2023-05-27T03:26:10;9.40;;;3.72;;
63320;SDS011;49449;48.800;9.534;2023-05-27T03:28:38;6.53;;;3.45;;
63320;SDS011;49449;48.800;9.534;2023-05-27T03:31:06;7.55;;;3.38;;
63320;SDS011;49449;48.800;9.534;2023-05-27T03:33:34;9.07;;;3.50;;
63320;SDS011;49449;48.800;9.534;2023-05-27T03:36:02;6.38;;;3.00;;
63320;SDS011;49449;48.800;9.534;2023-05-27T03:38:30;6.70;;;3.20;;
63320;SDS011;49449;48.800;9.534;2023-05-27T03:41:00;7.57;;;3.42;;
63320;SDS011;49449;48.800;9.534;2023-05-27T03:43:27;7.72;;;3.33;;
63320;SDS011;49449;48.800;9.534;2023-05-27T03:45:55;7.43;;;3.58;;
63320;SDS011;49449;48.800;9.534;2023-05-27T03:48:23;7.43;;;3.65;;
63320;SDS011;49449;48.800;9.534;2023-05-27T03:50:51;7.53;;;3.25;;
63320;SDS011;49449;48.800;9.534;2023-05-27T03:53:19;7.28;;;3.83;;
63320;SDS011;49449;48.800;9.534;2023-05-27T03:55:49;8.75;;;4.00;;
63320;SDS011;49449;48.800;9.534;2023-05-27T03:58:18;6.93;;;3.10;;
63320;SDS011;49449;48.800;9.534;2023-05-27T04:00:48;7.43;;;3.55;;
63320;SDS011;49449;48.800;9.534;2023-05-27T04:03:15;8.35;;;3.42;;
63320;SDS011;49449;48.800;9.534;2023-05-27T04:05:43;7.53;;;3.45;;
63320;SDS011;49449;48.800;9.534;2023-05-27T04:08:11;6.10;;;3.05;;
63320;SDS011;49449;48.800;9.534;2023-05-27T04:10:39;7.22;;;3.58;;
63320;SDS011;49449;48.800;9.534;2023-05-27T04:13:07;9.40;;;3.65;;
63320;SDS011;49449;48.800;9.534;2023-05-27T04:15:36;10.55;;;3.95;;
63320;SDS011;49449;48.800;9.534;2023-05-27T04:18:04;7.55;;;3.42;;
63320;SDS011;49449;48.800;9.534;2023-05-27T04:20:36;6.07;;;3.33;;
63320;SDS011;49449;48.800;9.534;2023-05-27T04:23:05;8.23;;;3.75;;
63320;SDS011;49449;48.800;9.534;2023-05-27T04:25:33;8.32;;;3.40;;
63320;SDS011;49449;48.800;9.534;2023-05-27T04:28:01;8.60;;;3.83;;
63320;SDS011;49449;48.800;9.534;2023-05-27T04:30:30;7.78;;;3.35;;
63320;SDS011;49449;48.800;9.534;2023-05-27T04:33:00;7.28;;;3.50;;
63320;SDS011;49449;48.800;9.534;2023-05-27T04:35:28;8.68;;;3.05;;
63320;SDS011;49449;48.800;9.534;2023-05-27T04:37:57;6.97;;;4.05;;
63320;SDS011;49449;48.800;9.534;2023-05-27T04:40:27;10.45;;;3.40;;
63320;SDS011;49449;48.800;9.534;2023-05-27T04:42:56;7.43;;;3.83;;
63320;SDS011;49449;48.800;9.534;2023-05-27T04:45:23;8.00;;;3.78;;
63320;SDS011;49449;48.800;9.534;2023-05-27T04:47:53;8.52;;;3.75;;
63320;SDS011;49449;48.800;9.534;2023-05-27T04:50:22;9.23;;;3.40;;
63320;SDS011;49449;48.800;9.534;2023-05-27T04:52:50;7.72;;;3.40;;
63320;SDS011;49449;48.800;9.534;2023-05-27T04:55:19;9.68;;;3.50;;
63320;SDS011;49449;48.800;9.534;2023-05-27T04:57:47;8.25;;;3.55;;
63320;SDS011;49449;48.800;9.534;2023-05-27T05:00:15;5.70;;;3.17;;
63320;SDS011;49449;48.800;9.534;2023-05-27T05:02:49;7.47;;;3.40;;
63320;SDS011;49449;48.800;9.534;2023-05-27T05:05:28;8.20;;;3.90;;
63320;SDS011;49449;48.800;9.534;2023-05-27T05:07:56;8.60;;;3.58;;
63320;SDS011;49449;48.800;9.534;2023-05-27T05:10:23;7.35;;;3.25;;
63320;SDS011;49449;48.800;9.534;2023-05-27T05:12:52;8.27;;;3.67;;
63320;SDS011;49449;48.800;9.534;2023-05-27T05:15:19;9.27;;;3.90;;
63320;SDS011;49449;48.800;9.534;2023-05-27T05:17:47;7.75;;;3.65;;
63320;SDS011;49449;48.800;9.534;2023-05-27T05:20:15;8.95;;;3.67;;
63320;SDS011;49449;48.800;9.534;2023-05-27T05:22:44;9.45;;;3.83;;
63320;SDS011;49449;48.800;9.534;2023-05-27T05:25:12;8.10;;;3.22;;
63320;SDS011;49449;48.800;9.534;2023-05-27T05:27:40;8.43;;;3.50;;
63320;SDS011;49449;48.800;9.534;2023-05-27T05:30:08;7.38;;;3.58;;
63320;SDS011;49449;48.800;9.534;2023-05-27T05:32:36;6.88;;;3.13;;
63320;SDS011;49449;48.800;9.534;2023-05-27T05:35:04;8.77;;;3.80;;
63320;SDS011;49449;48.800;9.534;2023-05-27T05:37:32;9.68;;;3.90;;
63320;SDS011;49449;48.800;9.534;2023-05-27T05:40:02;7.28;;;3.33;;
63320;SDS011;49449;48.800;9.534;2023-05-27T05:42:30;9.40;;;3.60;;
63320;SDS011;49449;48.800;9.534;2023-05-27T05:44:58;8.25;;;4.13;;
63320;SDS011;49449;48.800;9.534;2023-05-27T05:47:26;11.60;;;4.90;;
63320;SDS011;49449;48.800;9.534;2023-05-27T05:49:54;6.32;;;3.28;;
63320;SDS011;49449;48.800;9.534;2023-05-27T05:52:21;7.35;;;3.40;;
63320;SDS011;49449;48.800;9.534;2023-05-27T05:54:49;7.10;;;3.15;;
63320;SDS011;49449;48.800;9.534;2023-05-27T05:57:19;7.85;;;3.65;;
63320;SDS011;49449;48.800;9.534;2023-05-27T05:59:46;8.63;;;3.83;;
63320;SDS011;49449;48.800;9.534;2023-05-27T06:02:14;9.40;;;4.18;;
63320;SDS011;49449;48.800;9.534;2023-05-27T06:04:42;11.52;;;3.88;;
63320;SDS011;49449;48.800;9.534;2023-05-27T06:07:11;7.50;;;3.30;;
63320;SDS011;49449;48.800;9.534;2023-05-27T06:09:39;9.30;;;3.35;;
63320;SDS011;49449;48.800;9.534;2023-05-27T06:12:07;9.13;;;3.63;;
63320;SDS011;49449;48.800;9.534;2023-05-27T06:14:36;9.35;;;3.95;;
63320;SDS011;49449;48.800;9.534;2023-05-27T06:17:04;9.90;;;4.00;;
63320;SDS011;49449;48.800;9.534;2023-05-27T06:19:32;9.35;;;3.63;;
63320;SDS011;49449;48.800;9.534;2023-05-27T06:22:00;9.15;;;4.03;;
63320;SDS011;49449;48.800;9.534;2023-05-27T06:24:28;9.13;;;3.60;;
63320;SDS011;49449;48.800;9.534;2023-05-27T06:26:56;8.77;;;3.55;;
63320;SDS011;49449;48.800;9.534;2023-05-27T06:29:23;8.73;;;4.18;;
63320;SDS011;49449;48.800;9.534;2023-05-27T06:31:52;8.88;;;3.90;;
63320;SDS011;49449;48.800;9.534;2023-05-27T06:34:20;6.47;;;3.75;;
63320;SDS011;49449;48.800;9.534;2023-05-27T06:36:48;8.57;;;3.85;;
63320;SDS011;49449;48.800;9.534;2023-05-27T06:39:16;7.55;;;4.05;;
63320;SDS011;49449;48.800;9.534;2023-05-27T06:41:44;7.15;;;3.33;;
63320;SDS011;49449;48.800;9.534;2023-05-27T06:44:11;7.78;;;3.95;;
63320;SDS011;49449;48.800;9.534;2023-05-27T06:46:41;6.97;;;3.38;;
63320;SDS011;49449;48.800;9.534;2023-05-27T06:49:11;7.32;;;3.28;;
63320;SDS011;49449;48.800;9.534;2023-05-27T06:51:39;6.88;;;3.75;;
63320;SDS011;49449;48.800;9.534;2023-05-27T06:54:07;6.75;;;3.88;;
63320;SDS011;49449;48.800;9.534;2023-05-27T06:56:35;8.07;;;3.85;;
63320;SDS011;49449;48.800;9.534;2023-05-27T06:59:02;10.88;;;3.78;;
63320;SDS011;49449;48.800;9.534;2023-05-27T07:01:30;9.00;;;3.60;;
63320;SDS011;49449;48.800;9.534;2023-05-27T07:03:58;7.82;;;3.30;;
63320;SDS011;49449;48.800;9.534;2023-05-27T07:06:28;7.72;;;3.42;;
63320;SDS011;49449;48.800;9.534;2023-05-27T07:08:55;9.75;;;3.97;;
63320;SDS011;49449;48.800;9.534;2023-05-27T07:11:23;8.70;;;3.88;;
63320;SDS011;49449;48.800;9.534;2023-05-27T07:13:52;9.23;;;4.05;;
63320;SDS011;49449;48.800;9.534;2023-05-27T07:16:20;8.57;;;4.07;;
63320;SDS011;49449;48.800;9.534;2023-05-27T07:18:48;9.65;;;4.35;;
63320;SDS011;49449;48.800;9.534;2023-05-27T07:21:16;9.48;;;3.75;;
63320;SDS011;49449;48.800;9.534;2023-05-27T07:23:48;9.38;;;3.50;;
63320;SDS011;49449;48.800;9.534;2023-05-27T07:26:16;7.03;;;3.42;;
63320;SDS011;49449;48.800;9.534;2023-05-27T07:28:45;8.85;;;3.65;;
63320;SDS011;49449;48.800;9.534;2023-05-27T07:31:13;9.40;;;3.60;;
63320;SDS011;49449;48.800;9.534;2023-05-27T07:33:40;9.27;;;3.80;;
63320;SDS011;49449;48.800;9.534;2023-05-27T07:36:08;9.50;;;3.92;;
63320;SDS011;49449;48.800;9.534;2023-05-27T07:38:36;10.85;;;4.25;;
63320;SDS011;49449;48.800;9.534;2023-05-27T07:41:05;9.07;;;3.70;;
63320;SDS011;49449;48.800;9.534;2023-05-27T07:43:33;8.52;;;4.28;;
63320;SDS011;49449;48.800;9.534;2023-05-27T07:46:01;7.78;;;3.90;;
63320;SDS011;49449;48.800;9.534;2023-05-27T07:48:29;9.45;;;4.10;;
63320;SDS011;49449;48.800;9.534;2023-05-27T07:50:57;7.43;;;3.50;;
63320;SDS011;49449;48.800;9.534;2023-05-27T07:53:25;7.30;;;3.15;;
63320;SDS011;49449;48.800;9.534;2023-05-27T07:55:52;7.75;;;3.72;;
63320;SDS011;49449;48.800;9.534;2023-05-27T07:58:21;8.52;;;3.75;;
63320;SDS011;49449;48.800;9.534;2023-05-27T08:00:49;5.95;;;3.67;;
63320;SDS011;49449;48.800;9.534;2023-05-27T08:03:17;7.60;;;3.40;;
63320;SDS011;49449;48.800;9.534;2023-05-27T08:05:45;6.45;;;3.50;;
63320;SDS011;49449;48.800;9.534;2023-05-27T08:10:44;7.03;;;3.75;;
63320;SDS011;49449;48.800;9.534;2023-05-27T08:13:12;6.60;;;3.70;;
63320;SDS011;49449;48.800;9.534;2023-05-27T08:15:42;7.70;;;3.63;;
63320;SDS011;49449;48.800;9.534;2023-05-27T08:18:10;7.88;;;4.28;;
63320;SDS011;49449;48.800;9.534;2023-05-27T08:20:38;9.43;;;3.97;;
63320;SDS011;49449;48.800;9.534;2023-05-27T08:23:05;8.15;;;3.83;;
63320;SDS011;49449;48.800;9.534;2023-05-27T08:25:33;8.02;;;3.83;;
63320;SDS011;49449;48.800;9.534;2023-05-27T08:28:01;8.07;;;3.70;;
63320;SDS011;49449;48.800;9.534;2023-05-27T08:30:29;7.95;;;4.38;;
63320;SDS011;49449;48.800;9.534;2023-05-27T08:32:58;7.32;;;4.00;;
63320;SDS011;49449;48.800;9.534;2023-05-27T08:35:26;6.78;;;3.65;;
63320;SDS011;49449;48.800;9.534;2023-05-27T08:37:54;8.02;;;3.75;;
63320;SDS011;49449;48.800;9.534;2023-05-27T08:40:22;7.15;;;4.25;;
63320;SDS011;49449;48.800;9.534;2023-05-27T08:42:50;7.80;;;3.90;;
63320;SDS011;49449;48.800;9.534;2023-05-27T08:45:19;10.45;;;5.03;;
63320;SDS011;49449;48.800;9.534;2023-05-27T08:47:48;6.68;;;4.00;;
63320;SDS011;49449;48.800;9.534;2023-05-27T08:50:20;6.97;;;3.90;;
63320;SDS011;49449;48.800;9.534;2023-05-27T08:52:49;7.38;;;4.43;;
63320;SDS011;49449;48.800;9.534;2023-05-27T08:55:20;7.25;;;3.72;;
63320;SDS011;49449;48.800;9.534;2023-05-27T08:57:51;9.77;;;4.05;;
63320;SDS011;49449;48.800;9.534;2023-05-27T09:00:22;9.77;;;4.50;;
63320;SDS011;49449;48.800;9.534;2023-05-27T09:02:50;6.80;;;3.80;;
63320;SDS011;49449;48.800;9.534;2023-05-27T09:05:19;7.80;;;4.10;;
63320;SDS011;49449;48.800;9.534;2023-05-27T09:07:47;7.18;;;4.20;;
63320;SDS011;49449;48.800;9.534;2023-05-27T09:10:16;7.45;;;4.03;;
63320;SDS011;49449;48.800;9.534;2023-05-27T09:12:44;7.47;;;4.38;;
63320;SDS011;49449;48.800;9.534;2023-05-27T09:15:13;8.57;;;4.25;;
63320;SDS011;49449;48.800;9.534;2023-05-27T09:17:41;8.48;;;4.32;;
63320;SDS011;49449;48.800;9.534;2023-05-27T09:20:10;10.95;;;4.75;;
63320;SDS011;49449;48.800;9.534;2023-05-27T09:22:40;6.40;;;3.80;;
63320;SDS011;49449;48.800;9.534;2023-05-27T09:25:08;9.52;;;4.00;;
63320;SDS011;49449;48.800;9.534;2023-05-27T09:27:36;9.07;;;3.83;;
63320;SDS011;49449;48.800;9.534;2023-05-27T09:30:07;10.05;;;4.70;;
63320;SDS011;49449;48.800;9.534;2023-05-27T09:32:36;8.52;;;4.15;;
63320;SDS011;49449;48.800;9.534;2023-05-27T09:35:05;10.60;;;4.35;;
63320;SDS011;49449;48.800;9.534;2023-05-27T09:37:33;7.70;;;4.20;;
63320;SDS011;49449;48.800;9.534;2023-05-27T09:40:08;7.30;;;4.25;;
63320;SDS011;49449;48.800;9.534;2023-05-27T09:42:39;7.82;;;4.13;;
63320;SDS011;49449;48.800;9.534;2023-05-27T09:45:08;8.02;;;4.43;;
63320;SDS011;49449;48.800;9.534;2023-05-27T09:47:39;8.82;;;4.43;;
63320;SDS011;49449;48.800;9.534;2023-05-27T09:50:08;7.07;;;4.03;;
63320;SDS011;49449;48.800;9.534;2023-05-27T09:52:37;7.25;;;4.95;;
63320;SDS011;49449;48.800;9.534;2023-05-27T09:55:11;7.53;;;4.47;;
63320;SDS011;49449;48.800;9.534;2023-05-27T09:57:40;7.75;;;5.15;;
63320;SDS011;49449;48.800;9.534;2023-05-27T10:00:09;7.50;;;4.55;;
63320;SDS011;49449;48.800;9.534;2023-05-27T10:05:08;7.65;;;4.75;;
63320;SDS011;49449;48.800;9.534;2023-05-27T10:07:40;9.05;;;4.93;;
63320;SDS011;49449;48.800;9.534;2023-05-27T10:10:16;5.82;;;4.80;;
63320;SDS011;49449;48.800;9.534;2023-05-27T10:12:47;10.98;;;4.53;;
63320;SDS011;49449;48.800;9.534;2023-05-27T10:15:20;11.07;;;4.88;;
63320;SDS011;49449;48.800;9.534;2023-05-27T10:17:52;10.77;;;4.88;;
63320;SDS011;49449;48.800;9.534;2023-05-27T10:20:25;7.80;;;4.97;;
63320;SDS011;49449;48.800;9.534;2023-05-27T10:22:54;6.57;;;4.20;;
63320;SDS011;49449;48.800;9.534;2023-05-27T10:25:26;8.20;;;4.60;;
63320;SDS011;49449;48.800;9.534;2023-05-27T10:28:03;6.63;;;4.10;;
63320;SDS011;49449;48.800;9.534;2023-05-27T10:30:41;7.32;;;5.13;;
63320;SDS011;49449;48.800;9.534;2023-05-27T10:33:10;8.45;;;4.47;;
63320;SDS011;49449;48.800;9.534;2023-05-27T10:35:38;5.93;;;3.92;;
63320;SDS011;49449;48.800;9.534;2023-05-27T10:38:14;7.47;;;4.07;;
63320;SDS011;49449;48.800;9.534;2023-05-27T10:40:45;8.40;;;4.28;;
63320;SDS011;49449;48.800;9.534;2023-05-27T10:43:14;8.25;;;5.00;;
63320;SDS011;49449;48.800;9.534;2023-05-27T10:45:42;8.82;;;5.15;;
63320;SDS011;49449;48.800;9.534;2023-05-27T10:48:20;6.13;;;4.20;;
63320;SDS011;49449;48.800;9.534;2023-05-27T10:50:52;8.43;;;4.15;;
63320;SDS011;49449;48.800;9.534;2023-05-27T10:53:20;9.35;;;4.82;;
63320;SDS011;49449;48.800;9.534;2023-05-27T10:55:50;7.78;;;4.05;;
63320;SDS011;49449;48.800;9.534;2023-05-27T10:58:18;7.40;;;4.93;;
63320;SDS011;49449;48.800;9.534;2023-05-27T11:00:49;9.05;;;4.72;;
63320;SDS011;49449;48.800;9.534;2023-05-27T11:03:19;11.63;;;4.55;;
63320;SDS011;49449;48.800;9.534;2023-05-27T11:06:01;6.53;;;4.20;;
63320;SDS011;49449;48.800;9.534;2023-05-27T11:08:31;6.88;;;4.70;;
63320;SDS011;49449;48.800;9.534;2023-05-27T11:11:02;8.77;;;4.22;;
63320;SDS011;49449;48.800;9.534;2023-05-27T11:13:32;8.27;;;4.63;;
63320;SDS011;49449;48.800;9.534;2023-05-27T11:16:02;7.97;;;4.85;;
63320;SDS011;49449;48.800;9.534;2023-05-27T11:18:34;7.97;;;4.32;;
63320;SDS011;49449;48.800;9.534;2023-05-27T11:21:03;7.35;;;3.90;;
63320;SDS011;49449;48.800;9.534;2023-05-27T11:23:38;8.23;;;4.43;;
63320;SDS011;49449;48.800;9.534;2023-05-27T11:26:11;8.43;;;4.35;;
63320;SDS011;49449;48.800;9.534;2023-05-27T11:28:47;7.75;;;4.68;;
63320;SDS011;49449;48.800;9.534;2023-05-27T11:31:16;8.23;;;4.80;;
63320;SDS011;49449;48.800;9.534;2023-05-27T11:33:44;11.45;;;4.63;;
63320;SDS011;49449;48.800;9.534;2023-05-27T11:36:14;9.85;;;4.55;;
63320;SDS011;49449;48.800;9.534;2023-05-27T11:38:49;7.50;;;4.10;;
63320;SDS011;49449;48.800;9.534;2023-05-27T11:41:23;7.32;;;4.82;;
63320;SDS011;49449;48.800;9.534;2023-05-27T11:43:54;7.43;;;5.18;;
63320;SDS011;49449;48.800;9.534;2023-05-27T11:48:51;7.07;;;4.32;;
63320;SDS011;49449;48.800;9.534;2023-05-27T11:51:25;7.55;;;4.60;;
63320;SDS011;49449;48.800;9.534;2023-05-27T11:53:55;6.90;;;4.50;;
63320;SDS011;49449;48.800;9.534;2023-05-27T11:56:24;11.13;;;5.18;;
63320;SDS011;49449;48.800;9.534;2023-05-27T11:58:53;9.70;;;5.15;;
63320;SDS011;49449;48.800;9.534;2023-05-27T12:01:20;7.25;;;4.95;;
63320;SDS011;49449;48.800;9.534;2023-05-27T12:03:48;7.07;;;4.80;;
63320;SDS011;49449;48.800;9.534;2023-05-27T12:06:16;8.77;;;4.60;;
63320;SDS011;49449;48.800;9.534;2023-05-27T12:08:44;9.02;;;4.25;;
63320;SDS011;49449;48.800;9.534;2023-05-27T12:11:12;7.72;;;5.07;;
63320;SDS011;49449;48.800;9.534;2023-05-27T12:13:41;6.38;;;4.47;;
63320;SDS011;49449;48.800;9.534;2023-05-27T12:16:09;7.72;;;4.82;;
63320;SDS011;49449;48.800;9.534;2023-05-27T12:18:38;6.55;;;4.18;;
63320;SDS011;49449;48.800;9.534;2023-05-27T12:21:07;7.88;;;5.22;;
63320;SDS011;49449;48.800;9.534;2023-05-27T12:23:35;7.70;;;5.03;;
63320;SDS011;49449;48.800;9.534;2023-05-27T12:26:03;7.32;;;4.80;;
63320;SDS011;49449;48.800;9.534;2023-05-27T12:28:31;8.73;;;5.43;;
63320;SDS011;49449;48.800;9.534;2023-05-27T12:31:00;6.57;;;4.50;;
63320;SDS011;49449;48.800;9.534;2023-05-27T12:33:28;8.57;;;5.10;;
63320;SDS011;49449;48.800;9.534;2023-05-27T12:35:55;8.07;;;4.70;;
63320;SDS011;49449;48.800;9.534;2023-05-27T12:38:23;6.82;;;4.00;;
63320;SDS011;49449;48.800;9.534;2023-05-27T12:40:51;8.32;;;4.75;;
63320;SDS011;49449;48.800;9.534;2023-05-27T12:43:21;6.68;;;4.95;;
63320;SDS011;49449;48.800;9.534;2023-05-27T12:45:50;8.20;;;4.63;;
63320;SDS011;49449;48.800;9.534;2023-05-27T12:48:20;7.75;;;4.10;;
63320;SDS011;49449;48.800;9.534;2023-05-27T12:50:48;7.90;;;4.82;;
63320;SDS011;49449;48.800;9.534;2023-05-27T12:53:16;7.38;;;4.35;;
63320;SDS011;49449;48.800;9.534;2023-05-27T12:55:44;8.40;;;3.85;;
63320;SDS011;49449;48.800;9.534;2023-05-27T12:58:11;6.82;;;3.85;;
63320;SDS011;49449;48.800;9.534;2023-05-27T13:00:39;5.60;;;4.32;;
63320;SDS011;49449;48.800;9.534;2023-05-27T13:03:07;7.05;;;3.60;;
63320;SDS011;49449;48.800;9.534;2023-05-27T13:05:38;10.05;;;3.67;;
63320;SDS011;49449;48.800;9.534;2023-05-27T13:08:06;6.38;;;3.72;;
63320;SDS011;49449;48.800;9.534;2023-05-27T13:10:33;6.65;;;4.43;;
63320;SDS011;49449;48.800;9.534;2023-05-27T13:13:01;6.80;;;3.45;;
63320;SDS011;49449;48.800;9.534;2023-05-27T13:15:30;6.07;;;4.20;;
63320;SDS011;49449;48.800;9.534;2023-05-27T13:17:58;7.13;;;4.78;;
63320;SDS011;49449;48.800;9.534;2023-05-27T13:20:26;7.18;;;3.72;;
63320;SDS011;49449;48.800;9.534;2023-05-27T13:22:57;5.22;;;3.67;;
63320;SDS011;49449;48.800;9.534;2023-05-27T13:25:27;6.13;;;3.38;;
63320;SDS011;49449;48.800;9.534;2023-05-27T13:27:56;5.22;;;3.67;;
63320;SDS011;49449;48.800;9.534;2023-05-27T13:30:26;6.38;;;3.40;;
63320;SDS011;49449;48.800;9.534;2023-05-27T13:32:54;5.95;;;3.60;;
63320;SDS011;49449;48.800;9.534;2023-05-27T13:35:22;7.72;;;3.78;;
63320;SDS011;49449;48.800;9.534;2023-05-27T13:37:50;5.57;;;3.53;;
63320;SDS011;49449;48.800;9.534;2023-05-27T13:40:19;5.57;;;3.17;;
63320;SDS011;49449;48.800;9.534;2023-05-27T13:42:47;5.50;;;3.40;;
63320;SDS011;49449;48.800;9.534;2023-05-27T13:45:15;5.53;;;3.33;;
63320;SDS011;49449;48.800;9.534;2023-05-27T13:47:42;5.35;;;3.60;;
63320;SDS011;49449;48.800;9.534;2023-05-27T13:50:12;6.30;;;3.17;;
63320;SDS011;49449;48.800;9.534;2023-05-27T13:52:40;6.97;;;3.13;;
63320;SDS011;49449;48.800;9.534;2023-05-27T13:55:08;6.53;;;3.15;;
63320;SDS011;49449;48.800;9.534;2023-05-27T13:57:38;5.20;;;3.47;;
63320;SDS011;49449;48.800;9.534;2023-05-27T14:00:06;7.30;;;3.63;;
63320;SDS011;49449;48.800;9.534;2023-05-27T14:02:35;7.28;;;3.35;;
63320;SDS011;49449;48.800;9.534;2023-05-27T14:05:03;10.10;;;3.63;;
63320;SDS011;49449;48.800;9.534;2023-05-27T14:07:33;4.68;;;3.30;;
63320;SDS011;49449;48.800;9.534;2023-05-27T14:10:07;4.80;;;3.30;;
63320;SDS011;49449;48.800;9.534;2023-05-27T14:12:35;6.00;;;3.28;;
63320;SDS011;49449;48.800;9.534;2023-05-27T14:15:05;5.90;;;3.83;;
63320;SDS011;49449;48.800;9.534;2023-05-27T14:17:33;6.70;;;3.67;;
63320;SDS011;49449;48.800;9.534;2023-05-27T14:20:00;7.82;;;3.80;;
63320;SDS011;49449;48.800;9.534;2023-05-27T14:22:28;6.50;;;3.50;;
63320;SDS011;49449;48.800;9.534;2023-05-27T14:24:57;7.00;;;3.45;;
63320;SDS011;49449;48.800;9.534;2023-05-27T14:27:24;6.97;;;3.38;;
63320;SDS011;49449;48.800;9.534;2023-05-27T14:29:52;6.75;;;3.42;;
63320;SDS011;49449;48.800;9.534;2023-05-27T14:32:21;5.47;;;3.42;;
63320;SDS011;49449;48.800;9.534;2023-05-27T14:34:49;6.22;;;3.55;;
63320;SDS011;49449;48.800;9.534;2023-05-27T14:37:17;8.02;;;3.70;;
63320;SDS011;49449;48.800;9.534;2023-05-27T14:39:45;5.00;;;3.33;;
63320;SDS011;49449;48.800;9.534;2023-05-27T14:42:13;6.20;;;3.90;;
63320;SDS011;49449;48.800;9.534;2023-05-27T14:44:41;5.32;;;3.60;;
63320;SDS011;49449;48.800;9.534;2023-05-27T14:47:09;6.38;;;3.70;;
63320;SDS011;49449;48.800;9.534;2023-05-27T14:49:38;7.47;;;3.92;;
63320;SDS011;49449;48.800;9.534;2023-05-27T14:52:08;7.10;;;3.70;;
63320;SDS011;49449;48.800;9.534;2023-05-27T14:54:36;6.57;;;3.58;;
63320;SDS011;49449;48.800;9.534;2023-05-27T14:57:04;6.60;;;3.40;;
63320;SDS011;49449;48.800;9.534;2023-05-27T14:59:32;8.93;;;3.90;;
63320;SDS011;49449;48.800;9.534;2023-05-27T15:02:00;5.28;;;3.28;;
63320;SDS011;49449;48.800;9.534;2023-05-27T15:04:29;8.23;;;3.85;;
63320;SDS011;49449;48.800;9.534;2023-05-27T15:06:58;5.07;;;3.85;;